Flight Track Log - Related Links

Times and Time Zones

All times are in EDT time to prevent confusion due to time zone crossing. See the N668DN flight status page for this flight to view local times or setup timezone preferences in your user account.

Time Position Orientation Groundspeed Altitude Reporting Facility
EDT Latitude Longitude Course Direction KTS MPH feet Rate Location/Type
Wed 09:06:52 AM 42.2314 -83.3342 275° West 167 192 1,400  Level Cleveland Center
Wed 09:07:41 AM 42.2711 -83.3219 13° North 199 229 3,200 2,127 Climbing Cleveland Center
Wed 09:08:42 AM 42.3386 -83.2967 15° North 265 305 5,300 2,164 Climbing Cleveland Center
Wed 09:09:43 AM 42.4144 -83.2633 18° North 308 354 7,600 2,328 Climbing Cleveland Center
Wed 09:10:00 AM 42.3528 -83.9371 292° West  Level FlightAware Approximate
Wed 09:10:38 AM 42.4892 -83.2694 357° North 297 342 9,800  Level Cleveland Center
Wed 09:11:00 AM 42.3962 -84.0818 292° West  Level FlightAware Approximate
Wed 09:11:26 AM 42.5192 -83.3300 304° West 293 337 10,000  Level Cleveland Center
Wed 09:12:00 AM 42.4200 -84.2324 275° West  Level FlightAware Approximate
Wed 09:12:26 AM 42.5103 -83.4367 264° West 274 315 10,000  Level Cleveland Center
Wed 09:13:26 AM 42.4969 -83.5486 261° West 279 321 10,000  Level Cleveland Center
Wed 09:14:26 AM 42.4858 -83.6550 262° West 284 327 10,000 1,350 Level Cleveland Center
Wed 09:15:26 AM 42.4722 -83.7756 261° West 295 339 12,700 2,650 Climbing Cleveland Center
Wed 09:16:26 AM 42.4608 -83.8792 262° West 290 334 15,300 1,900 Climbing Cleveland Center
Wed 09:17:26 AM 42.4492 -83.9967 262° West 302 348 16,500 1,700 Climbing Cleveland Center
Wed 09:18:26 AM 42.4328 -84.1253 260° West 326 375 18,700 2,150 Climbing Cleveland Center
Wed 09:19:26 AM 42.4267 -84.2544 266° West 341 392 20,800 1,950 Climbing Cleveland Center
Wed 09:20:26 AM 42.4306 -84.3869 272° West 346 398 22,600 1,342 Climbing Cleveland Center
Wed 09:22:07 AM 42.4381 -84.5933 273° West 370 426 24,400 1,215 Climbing Chicago Center
Wed 09:23:09 AM 42.4425 -84.7700 272° West 389 448 25,900 1,355 Climbing Chicago Center
Wed 09:24:11 AM 42.4456 -84.9186 272° West 396 456 27,200 1,210 Climbing Chicago Center
Wed 09:25:13 AM 42.4489 -85.0719 272° West 405 466 28,400 1,500 Climbing Chicago Center
Wed 09:26:15 AM 42.4522 -85.2253 272° West 407 468 30,300 1,645 Climbing Chicago Center
Wed 09:27:17 AM 42.4544 -85.3739 271° West 399 459 31,800 1,887 Climbing Chicago Center
Wed 09:28:19 AM 42.4575 -85.5161 272° West 385 443 34,200 1,742 Climbing Chicago Center
Wed 09:29:21 AM 42.4589 -85.6483 271° West 357 411 35,400 871 Climbing Chicago Center
Wed 09:30:23 AM 42.4625 -85.8094 272° West 356 410 36,000 290 Climbing Chicago Center
Wed 09:31:25 AM 42.4636 -85.9417 271° West 352 405 36,000  Level Chicago Center
Wed 09:32:27 AM 42.4653 -86.0778 271° West 360 414 36,000  Level Chicago Center
Wed 09:33:29 AM 42.5006 -86.2194 289° West 402 463 36,000  Level Chicago Center
Wed 09:34:32 AM 42.5444 -86.3597 293° West 405 466 36,000  Level Chicago Center
Wed 09:35:34 AM 42.5883 -86.5014 293° West 406 467 36,000  Level Chicago Center
Wed 09:36:36 AM 42.6478 -86.6389 300° West 433 498 36,000  Level Chicago Center
Wed 09:37:38 AM 42.7522 -86.7897 313° West 453 521 36,000  Level Chicago Center
Wed 09:38:40 AM 42.8411 -86.9150 314° West 456 525 36,000  Level Chicago Center
Wed 09:39:42 AM 42.9297 -87.0356 315° West 451 519 36,000  Level Chicago Center
Wed 09:40:44 AM 43.0189 -87.1567 315° West 451 519 36,000  Level Chicago Center
Wed 09:41:46 AM 43.1083 -87.2756 316° Northwest 449 517 36,000  Level Chicago Center
Wed 09:42:48 AM 43.1861 -87.4181 307° West 417 480 36,000  Level Chicago Center
Wed 09:43:50 AM 43.2264 -87.5594 291° West 395 455 36,000  Level Chicago Center
Wed 09:44:52 AM 43.2558 -87.7028 286° West 391 450 36,000  Level Chicago Center
Wed 09:45:54 AM 43.3136 -87.8672 296° West 415 478 36,000  Level Chicago Center
Wed 09:46:56 AM 43.3639 -88.0089 296° West 413 475 36,000  Level Chicago Center
Wed 09:47:59 AM 43.4128 -88.1519 295° West 413 475 36,000  Level Chicago Center
Wed 09:49:01 AM 43.4644 -88.2922 297° West 414 476 36,000  Level Chicago Center
Wed 09:50:03 AM 43.5239 -88.4531 297° West 416 479 36,000  Level Chicago Center
Wed 09:51:05 AM 43.5722 -88.5950 295° West 416 479 36,000  Level Chicago Center
Wed 09:52:07 AM 43.6247 -88.7400 297° West 421 484 36,000  Level Chicago Center
Wed 09:52:27 AM 43.6419 -88.7872 297° West 421 484 36,000  Level Minneapolis Center
Wed 09:53:09 AM 43.6775 -88.8867 296° West 426 490 36,000  Level Chicago Center
Wed 09:53:29 AM 43.6950 -88.9350 297° West 427 491 36,000  Level Minneapolis Center
Wed 09:54:30 AM 43.7564 -89.1075 296° West 429 494 36,000  Level Minneapolis Center
Wed 09:55:32 AM 43.8078 -89.2586 295° West 432 497 36,000  Level Minneapolis Center
Wed 09:56:34 AM 43.8608 -89.4067 296° West 430 495 36,000  Level Minneapolis Center
Wed 09:57:36 AM 43.9131 -89.5567 296° West 432 497 36,000  Level Minneapolis Center
Wed 09:58:38 AM 43.9642 -89.7069 295° West 431 496 36,000  Level Minneapolis Center
Wed 09:59:40 AM 44.0153 -89.8564 295° West 430 495 36,000 145 Level Minneapolis Center
Wed 10:00:42 AM 44.0758 -90.0311 296° West 430 495 36,300 732 Climbing Minneapolis Center
Wed 10:01:43 AM 44.1261 -90.1833 295° West 423 487 37,500 829 Climbing Minneapolis Center
Wed 10:02:45 AM 44.1753 -90.3300 295° West 420 483 38,000 242 Climbing Minneapolis Center
Wed 10:03:47 AM 44.2258 -90.4783 295° West 422 486 38,000  Level Minneapolis Center
Wed 10:04:49 AM 44.2789 -90.6336 296° West 421 484 38,000  Level Minneapolis Center
Wed 10:05:51 AM 44.3269 -90.7775 295° West 430 495 38,000  Level Minneapolis Center
Wed 10:06:53 AM 44.3850 -90.9519 295° West 435 501 38,000  Level Minneapolis Center
Wed 10:07:55 AM 44.4344 -91.1058 294° West 436 502 38,000  Level Minneapolis Center
Wed 10:08:56 AM 44.4858 -91.2583 295° West 436 502 38,000  Level Minneapolis Center
Wed 10:09:58 AM 44.5353 -91.4125 294° West 435 501 38,000  Level Minneapolis Center
Wed 10:11:00 AM 44.5750 -91.5350 295° West 436 502 38,000  Level Minneapolis Center
Wed 10:12:01 AM 44.6236 -91.6869 294° West 431 496 38,000  Level Minneapolis Center
Wed 10:13:04 AM 44.6917 -91.9019 294° West 432 497 38,000  Level Minneapolis Center
Wed 10:14:06 AM 44.7408 -92.0536 295° West 430 495 38,000  Level Minneapolis Center
Wed 10:15:08 AM 44.7886 -92.2053 294° West 428 493 38,000  Level Minneapolis Center
Wed 10:16:09 AM 44.8358 -92.3581 294° West 427 491 38,000  Level Minneapolis Center
Wed 10:17:11 AM 44.8736 -92.4803 294° West 429 494 38,000  Level Minneapolis Center
Wed 10:18:13 AM 44.9389 -92.6928 294° West 426 490 38,000  Level Minneapolis Center
Wed 10:19:15 AM 44.9850 -92.8431 293° West 422 486 38,000  Level Minneapolis Center
Wed 10:20:17 AM 45.0314 -92.9925 294° West 422 486 38,000  Level Minneapolis Center
Wed 10:21:19 AM 45.0767 -93.1433 293° West 424 488 38,000  Level Minneapolis Center
Wed 10:22:21 AM 45.1217 -93.2953 293° West 423 487 38,000  Level Minneapolis Center
Wed 10:23:23 AM 45.1672 -93.4800 289° West 420 483 38,000  Level Minneapolis Center
Wed 10:24:25 AM 45.1989 -93.6367 286° West 418 481 38,000  Level Minneapolis Center
Wed 10:25:27 AM 45.2317 -93.7939 287° West 419 482 38,000  Level Minneapolis Center
Wed 10:26:29 AM 45.2636 -93.9492 286° West 415 478 38,000  Level Minneapolis Center
Wed 10:27:31 AM 45.2958 -94.1047 286° West 413 475 38,000  Level Minneapolis Center
Wed 10:28:33 AM 45.3333 -94.2917 286° West 414 476 38,000  Level Minneapolis Center
Wed 10:29:35 AM 45.3650 -94.4478 286° West 414 476 38,000  Level Minneapolis Center
Wed 10:30:37 AM 45.3950 -94.6033 285° West 411 473 38,000  Level Minneapolis Center
Wed 10:31:39 AM 45.4300 -94.7611 288° West 416 479 38,000  Level Minneapolis Center
Wed 10:32:41 AM 45.4614 -94.9211 286° West 420 483 38,000  Level Minneapolis Center
Wed 10:33:43 AM 45.4975 -95.1167 285° West 425 489 38,000  Level Minneapolis Center
Wed 10:34:45 AM 45.5294 -95.2775 286° West 425 489 38,000  Level Minneapolis Center
Wed 10:35:47 AM 45.5625 -95.4394 286° West 426 490 38,000  Level Minneapolis Center
Wed 10:36:49 AM 45.5872 -95.6058 282° West 427 491 38,000  Level Minneapolis Center
Wed 10:37:51 AM 45.6192 -95.7675 286° West 423 487 38,000  Level Minneapolis Center
Wed 10:38:53 AM 45.6481 -95.9289 284° West 420 483 38,000  Level Minneapolis Center
Wed 10:39:54 AM 45.6844 -96.1228 285° West 421 484 38,000  Level Minneapolis Center
Wed 10:40:57 AM 45.7089 -96.2625 284° West 421 484 38,000  Level Minneapolis Center
Wed 10:41:58 AM 45.7442 -96.4569 285° West 420 483 38,000  Level Minneapolis Center
Wed 10:43:00 AM 45.7667 -96.5864 284° West 418 481 38,000  Level Minneapolis Center
Wed 10:44:02 AM 45.8019 -96.7811 285° West 421 484 38,000  Level Minneapolis Center
Wed 10:45:04 AM 45.8294 -96.9425 284° West 417 480 38,000  Level Minneapolis Center
Wed 10:46:06 AM 45.8606 -97.1022 286° West 418 481 38,000  Level Minneapolis Center
Wed 10:47:08 AM 45.8875 -97.2669 283° West 422 486 38,000  Level Minneapolis Center
Wed 10:48:10 AM 45.9206 -97.4661 283° West 426 490 38,000  Level Minneapolis Center
Wed 10:49:12 AM 45.9425 -97.5975 284° West 426 490 38,000  Level Minneapolis Center
Wed 10:50:14 AM 45.9761 -97.7986 284° West 427 491 38,000  Level Minneapolis Center
Wed 10:51:16 AM 46.0039 -97.9697 283° West 433 498 38,000  Level Minneapolis Center
Wed 10:52:18 AM 46.0306 -98.1317 283° West 430 495 38,000  Level Minneapolis Center
Wed 10:53:20 AM 46.0625 -98.3306 283° West 427 491 38,000  Level Minneapolis Center
Wed 10:54:22 AM 46.0883 -98.4950 283° West 425 489 38,000  Level Minneapolis Center
Wed 10:55:24 AM 46.1142 -98.6617 283° West 422 486 38,000  Level Minneapolis Center
Wed 10:56:26 AM 46.1406 -98.8261 283° West 421 484 38,000  Level Minneapolis Center
Wed 10:57:28 AM 46.1653 -98.9886 282° West 417 480 38,000  Level Minneapolis Center
Wed 10:58:30 AM 46.1900 -99.1508 282° West 416 479 38,000  Level Minneapolis Center
Wed 10:59:32 AM 46.2181 -99.3419 282° West 416 479 38,000  Level Minneapolis Center
Wed 11:00:46 AM 46.2425 -99.5061 282° West 418 481 38,000  Level Minneapolis Center
Wed 11:02:01 AM 46.2714 -99.7008 282° West 417 480 38,000  Level Minneapolis Center
Wed 11:03:03 AM 46.3011 -99.8997 282° West 422 486 38,000  Level Minneapolis Center
Wed 11:04:05 AM 46.3253 -100.0669 282° West 424 488 38,000  Level Minneapolis Center
Wed 11:05:07 AM 46.3469 -100.2258 281° West 412 474 38,000  Level Minneapolis Center
Wed 11:06:09 AM 46.3747 -100.4222 282° West 414 476 38,000  Level Minneapolis Center
Wed 11:07:11 AM 46.3983 -100.5867 282° West 417 480 38,000  Level Minneapolis Center
Wed 11:08:13 AM 46.4200 -100.7522 281° West 419 482 38,000  Level Minneapolis Center
Wed 11:09:15 AM 46.4436 -100.9186 282° West 421 484 38,000  Level Minneapolis Center
Wed 11:10:17 AM 46.4656 -101.0850 281° West 422 486 38,000  Level Minneapolis Center
Wed 11:11:19 AM 46.4886 -101.2500 282° West 420 483 38,000  Level Minneapolis Center
Wed 11:12:21 AM 46.5128 -101.4578 280° West 431 496 38,000  Level Minneapolis Center
Wed 11:13:22 AM 46.5353 -101.6219 281° West 422 486 38,000  Level Minneapolis Center
Wed 11:14:24 AM 46.5553 -101.7697 281° West 422 486 38,000  Level Minneapolis Center
Wed 11:15:26 AM 46.5772 -101.9364 281° West 421 484 38,000  Level Minneapolis Center
Wed 11:16:28 AM 46.6033 -102.1364 281° West 421 484 38,000  Level Minneapolis Center
Wed 11:17:30 AM 46.6264 -102.3036 281° West 422 486 38,000  Level Minneapolis Center
Wed 11:18:32 AM 46.6472 -102.4706 280° West 422 486 38,000  Level Minneapolis Center
Wed 11:19:34 AM 46.6675 -102.6406 280° West 424 488 38,000  Level Minneapolis Center
Wed 11:20:36 AM 46.6869 -102.8125 279° West 428 493 38,000  Level Minneapolis Center
Wed 11:21:25 AM 46.7006 -102.9506 278° West 427 491 38,000  Level Salt Lake Center
Wed 11:22:27 AM 46.7200 -103.1225 279° West 428 493 38,000  Level Salt Lake Center
Wed 11:23:29 AM 46.7428 -103.3292 279° West 429 494 38,000  Level Salt Lake Center
Wed 11:24:31 AM 46.7622 -103.4972 280° West 427 491 38,000  Level Salt Lake Center
Wed 11:25:33 AM 46.7819 -103.6669 280° West 426 490 38,000  Level Salt Lake Center
Wed 11:26:35 AM 46.8000 -103.8383 279° West 426 490 38,000  Level Salt Lake Center
Wed 11:27:37 AM 46.8183 -104.0114 279° West 428 493 38,000  Level Salt Lake Center
Wed 11:28:39 AM 46.8364 -104.1800 279° West 425 489 38,000  Level Salt Lake Center
Wed 11:29:41 AM 46.8544 -104.3536 279° West 428 493 38,000  Level Salt Lake Center
Wed 11:30:43 AM 46.8753 -104.5589 279° West 427 491 38,000  Level Salt Lake Center
Wed 11:31:45 AM 46.8931 -104.7297 279° West 426 490 38,000  Level Salt Lake Center
Wed 11:32:47 AM 46.9092 -104.8997 278° West 423 487 38,000  Level Salt Lake Center
Wed 11:33:49 AM 46.9256 -105.0708 278° West 425 489 38,000  Level Salt Lake Center
Wed 11:34:51 AM 46.9431 -105.2442 278° West 429 494 38,000  Level Salt Lake Center
Wed 11:35:53 AM 46.9603 -105.4156 278° West 427 491 38,000  Level Salt Lake Center
Wed 11:36:55 AM 46.9789 -105.6183 278° West 423 487 38,000  Level Salt Lake Center
Wed 11:37:57 AM 46.9947 -105.7869 278° West 420 483 38,000  Level Salt Lake Center
Wed 11:38:59 AM 47.0103 -105.9539 278° West 416 479 38,000  Level Salt Lake Center
Wed 11:40:01 AM 47.0244 -106.1219 277° West 417 480 38,000  Level Salt Lake Center
Wed 11:41:03 AM 47.0389 -106.2908 277° West 417 480 38,000  Level Salt Lake Center
Wed 11:42:05 AM 47.0567 -106.4878 278° West 422 486 38,000  Level Salt Lake Center
Wed 11:43:07 AM 47.0703 -106.6506 277° West 423 487 38,000  Level Salt Lake Center
Wed 11:44:09 AM 47.0867 -106.8425 277° West 425 489 38,000  Level Salt Lake Center
Wed 11:45:11 AM 47.0989 -107.0069 276° West 425 489 38,000  Level Salt Lake Center
Wed 11:46:13 AM 47.1150 -107.1997 277° West 427 491 38,000  Level Salt Lake Center
Wed 11:47:15 AM 47.1264 -107.3647 276° West 425 489 38,000  Level Salt Lake Center
Wed 11:48:17 AM 47.1414 -107.5578 277° West 427 491 38,000  Level Salt Lake Center
Wed 11:49:19 AM 47.1533 -107.7239 276° West 428 493 38,000  Level Salt Lake Center
Wed 11:50:21 AM 47.1683 -107.9153 277° West 424 488 38,000  Level Salt Lake Center
Wed 11:51:23 AM 47.1794 -108.0806 276° West 424 488 38,000  Level Salt Lake Center
Wed 11:52:25 AM 47.1922 -108.2728 276° West 424 488 38,000  Level Salt Lake Center
Wed 11:53:27 AM 47.2033 -108.4367 276° West 423 487 38,000  Level Salt Lake Center
Wed 11:54:29 AM 47.2142 -108.6025 276° West 425 489 38,000  Level Salt Lake Center
Wed 11:55:31 AM 47.2272 -108.8014 276° West 424 488 38,000  Level Salt Lake Center
Wed 11:56:33 AM 47.2358 -108.9508 275° West 426 490 38,000  Level Salt Lake Center
Wed 11:57:35 AM 47.2486 -109.1561 275° West 422 486 38,000  Level Salt Lake Center
Wed 11:58:37 AM 47.2586 -109.3286 275° West 425 489 38,000  Level Salt Lake Center
Wed 11:59:39 AM 47.2689 -109.4997 275° West 421 484 38,000  Level Salt Lake Center
Wed 12:00:41 PM 47.2783 -109.6714 275° West 422 486 38,000  Level Salt Lake Center
Wed 12:01:43 PM 47.2878 -109.8436 275° West 423 487 38,000  Level Salt Lake Center
Wed 12:02:45 PM 47.2975 -110.0150 275° West 421 484 38,000  Level Salt Lake Center
Wed 12:03:47 PM 47.3072 -110.2189 274° West 419 482 38,000  Level Salt Lake Center
Wed 12:04:49 PM 47.3169 -110.3867 275° West 413 475 38,000  Level Salt Lake Center
Wed 12:05:51 PM 47.3250 -110.5572 274° West 416 479 38,000  Level Salt Lake Center
Wed 12:06:53 PM 47.3328 -110.7281 274° West 417 480 38,000  Level Salt Lake Center
Wed 12:07:55 PM 47.3408 -110.8983 274° West 416 479 38,000  Level Salt Lake Center
Wed 12:08:57 PM 47.3489 -111.0722 274° West 421 484 38,000  Level Salt Lake Center
Wed 12:09:59 PM 47.3561 -111.2469 274° West 423 487 38,000  Level Salt Lake Center
Wed 12:11:01 PM 47.3633 -111.4244 274° West 427 491 38,000  Level Salt Lake Center
Wed 12:12:03 PM 47.3717 -111.6339 273° West 425 489 38,000  Level Salt Lake Center
Wed 12:14:06 PM 47.3858 -111.9861 274° West 431 496 38,000  Level Salt Lake Center
Wed 12:15:08 PM 47.3900 -112.1586 272° West 424 488 38,000  Level Salt Lake Center
Wed 12:16:10 PM 47.3961 -112.3331 273° West 426 490 38,000  Level Salt Lake Center
Wed 12:17:12 PM 47.4017 -112.5083 273° West 427 491 38,000  Level Salt Lake Center
Wed 12:18:14 PM 47.4078 -112.6828 273° West 427 491 38,000  Level Salt Lake Center
Wed 12:19:16 PM 47.4131 -112.8922 272° West 428 493 38,000  Level Salt Lake Center
Wed 12:20:18 PM 47.4186 -113.0667 273° West 433 498 38,000  Level Salt Lake Center
Wed 12:21:20 PM 47.4225 -113.2417 272° West 427 491 38,000  Level Salt Lake Center
Wed 12:22:22 PM 47.4264 -113.4169 272° West 429 494 38,000  Level Salt Lake Center
Wed 12:23:24 PM 47.4308 -113.5928 272° West 430 495 38,000  Level Salt Lake Center
Wed 12:24:26 PM 47.4344 -113.7686 272° West 428 493 38,000  Level Salt Lake Center
Wed 12:25:28 PM 47.4383 -113.9783 272° West 426 490 38,000  Level Salt Lake Center
Wed 12:26:30 PM 47.4406 -114.1497 271° West 419 482 38,000  Level Salt Lake Center
Wed 12:27:32 PM 47.4439 -114.3231 272° West 421 484 38,000  Level Salt Lake Center
Wed 12:28:34 PM 47.4461 -114.4972 271° West 422 486 38,000  Level Salt Lake Center
Wed 12:29:36 PM 47.4486 -114.6742 271° West 429 494 38,000  Level Salt Lake Center
Wed 12:30:12 PM 47.4508 -114.7794 272° West 426 490 38,000  Level Seattle Center
Wed 12:31:13 PM 47.4525 -114.9567 271° West 429 494 38,000  Level Seattle Center
Wed 12:32:14 PM 47.4544 -115.1322 271° West 428 493 38,000  Level Seattle Center
Wed 12:33:15 PM 47.4550 -115.3103 270° West 432 497 38,000  Level Seattle Center
Wed 12:34:16 PM 47.4564 -115.4919 271° West 441 507 38,000  Level Seattle Center
Wed 12:35:17 PM 47.4586 -115.6731 271° West 442 509 38,000  Level Seattle Center
Wed 12:36:18 PM 47.4694 -115.8536 275° West 437 503 38,000  Level Seattle Center
Wed 12:37:19 PM 47.4800 -116.0303 275° West 434 499 38,000  Level Seattle Center
Wed 12:38:20 PM 47.4919 -116.2428 275° West 432 497 38,000  Level Seattle Center
Wed 12:39:21 PM 47.5019 -116.4203 275° West 434 499 38,000  Level Seattle Center
Wed 12:40:21 PM 47.5125 -116.5972 275° West 433 498 38,000  Level Seattle Center
Wed 12:41:22 PM 47.5217 -116.7736 274° West 432 497 38,000  Level Seattle Center
Wed 12:42:23 PM 47.5322 -116.9519 275° West 433 498 38,000  Level Seattle Center
Wed 12:43:24 PM 47.5394 -117.1258 274° West 431 496 38,000  Level Seattle Center
Wed 12:44:25 PM 47.5500 -117.3181 275° West 432 497 38,000  Level Seattle Center
Wed 12:45:26 PM 47.5592 -117.4967 274° West 434 499 38,000  Level Seattle Center
Wed 12:46:27 PM 47.5692 -117.6758 275° West 438 504 38,000  Level Seattle Center
Wed 12:47:28 PM 47.5869 -117.8508 279° West 433 498 38,000  Level Seattle Center
Wed 12:48:29 PM 47.6033 -118.0286 278° West 435 501 38,000  Level Seattle Center
Wed 12:50:00 PM 47.6260 -118.2771 278° West  Level FlightAware Approximate
Wed 12:50:31 PM 47.6367 -118.3822 278° West 435 501 38,000  Level Seattle Center
Wed 12:51:32 PM 47.6522 -118.5603 277° West 436 502 38,000  Level Seattle Center
Wed 12:52:33 PM 47.6689 -118.7356 278° West 431 496 38,000  Level Seattle Center
Wed 12:53:34 PM 47.6822 -118.9108 277° West 431 496 38,000  Level Seattle Center
Wed 12:54:34 PM 47.6972 -119.0856 277° West 428 493 38,000  Level Seattle Center
Wed 12:55:35 PM 47.7125 -119.2597 277° West 427 491 38,000 -49 Level Seattle Center
Wed 12:56:36 PM 47.7267 -119.4336 277° West 427 491 37,900  Descending Seattle Center
Wed 12:57:37 PM 47.7444 -119.6414 277° West 424 488 38,000 49 Climbing Seattle Center
Wed 12:58:38 PM 47.7547 -119.8169 275° West 426 490 38,000  Level Seattle Center
Wed 12:59:39 PM 47.7694 -119.9922 277° West 428 493 38,000  Level Seattle Center
Wed 01:00:40 PM 47.7825 -120.1683 276° West 430 495 38,000 -197 Level Seattle Center
Wed 01:01:41 PM 47.7942 -120.3461 276° West 432 497 37,600 -1,623 Descending Seattle Center
Wed 01:02:42 PM 47.8103 -120.5225 278° West 434 499 34,700 -3,098 Descending Seattle Center
Wed 01:03:43 PM 47.8219 -120.7053 275° West 443 510 31,300 -3,049 Descending Seattle Center
Wed 01:04:44 PM 47.8367 -120.8964 277° West 447 514 28,500 -2,697 Descending Seattle Center
Wed 01:05:32 PM 47.8447 -121.0422 275° West 436 502 26,400 -2,557 Descending Seattle Center
Wed 01:06:39 PM 47.8589 -121.2400 276° West 411 473 23,600 -2,625 Descending Seattle Center
Wed 01:07:40 PM 47.8681 -121.4039 275° West 399 459 20,800 -2,557 Descending Seattle Center
Wed 01:08:41 PM 47.8772 -121.5678 275° West 396 456 18,400 -1,594 Descending Seattle Center
Wed 01:09:48 PM 47.8625 -121.7353 263° West 360 414 17,400 -1,302 Descending Seattle Center
Wed 01:10:50 PM 47.7892 -121.8361 223° Southwest 354 407 15,600 -1,934 Descending Seattle Center
Wed 01:11:49 PM 47.7203 -121.9281 222° Southwest 338 389 13,500 -2,350 Descending Seattle Center
Wed 01:12:50 PM 47.6564 -122.0167 223° Southwest 318 366 10,900 -1,759 Descending Seattle Center
Wed 01:13:45 PM 47.5997 -122.0911 222° Southwest 293 337 10,100 -393 Descending Seattle Center
Wed 01:14:52 PM 47.5325 -122.1681 218° Southwest 255 293 10,100 -516 Level Seattle Center
Wed 01:15:53 PM 47.4644 -122.1631 177° South 234 269 9,000 -1,082 Descending Seattle Center
Wed 01:16:54 PM 47.3964 -122.1581 177° South 244 281 7,900 -983 Descending Seattle Center
Wed 01:17:49 PM 47.3358 -122.1558 179° South 238 274 7,100 -569 Descending Seattle Center
Wed 01:18:50 PM 47.2678 -122.1508 177° South 238 274 6,800 -645 Descending Seattle Center
Wed 01:19:50 PM 47.2100 -122.1858 202° Southwest 228 262 5,800 -893 Descending Seattle Center
Wed 01:20:51 PM 47.1644 -122.2339 216° Southwest 204 235 5,000 -443 Descending Seattle Center
Wed 01:21:52 PM 47.1886 -122.3022 298° West 190 219 4,900 -492 Descending Seattle Center
Wed 01:22:53 PM 47.2394 -122.3100 354° North 188 216 4,000 -931 Descending Seattle Center
Wed 01:23:48 PM 47.2864 -122.3106 360° North 176 203 3,100 -982 Descending Seattle Center

Login

Don't have an account? Register now (free) for customized features, flight alerts, and more!